sensor_id;sensor_type;location;lat;lon;timestamp;P1;durP1;ratioP1;P2;durP2;ratioP2
4766;SDS011;2397;53.576;9.746;2024-02-26T00:00:27;3.63;;;3.43;;
4766;SDS011;2397;53.576;9.746;2024-02-26T00:02:54;4.97;;;4.23;;
4766;SDS011;2397;53.576;9.746;2024-02-26T00:05:21;4.70;;;4.33;;
4766;SDS011;2397;53.576;9.746;2024-02-26T00:07:48;3.77;;;3.47;;
4766;SDS011;2397;53.576;9.746;2024-02-26T00:10:15;4.20;;;3.80;;
4766;SDS011;2397;53.576;9.746;2024-02-26T00:12:41;3.60;;;3.30;;
4766;SDS011;2397;53.576;9.746;2024-02-26T00:15:08;4.10;;;3.67;;
4766;SDS011;2397;53.576;9.746;2024-02-26T00:17:36;4.17;;;3.47;;
4766;SDS011;2397;53.576;9.746;2024-02-26T00:20:03;3.50;;;3.20;;
4766;SDS011;2397;53.576;9.746;2024-02-26T00:22:34;3.20;;;2.90;;
4766;SDS011;2397;53.576;9.746;2024-02-26T00:25:01;3.60;;;3.30;;
4766;SDS011;2397;53.576;9.746;2024-02-26T00:27:28;3.50;;;3.20;;
4766;SDS011;2397;53.576;9.746;2024-02-26T00:29:54;3.00;;;2.70;;
4766;SDS011;2397;53.576;9.746;2024-02-26T00:32:21;3.13;;;2.93;;
4766;SDS011;2397;53.576;9.746;2024-02-26T00:34:47;2.80;;;2.60;;
4766;SDS011;2397;53.576;9.746;2024-02-26T00:37:14;4.60;;;3.83;;
4766;SDS011;2397;53.576;9.746;2024-02-26T00:39:40;7.73;;;4.93;;
4766;SDS011;2397;53.576;9.746;2024-02-26T00:42:07;8.00;;;4.13;;
4766;SDS011;2397;53.576;9.746;2024-02-26T00:44:34;4.53;;;3.20;;
4766;SDS011;2397;53.576;9.746;2024-02-26T00:47:01;3.53;;;3.23;;
4766;SDS011;2397;53.576;9.746;2024-02-26T00:49:28;4.27;;;3.20;;
4766;SDS011;2397;53.576;9.746;2024-02-26T00:51:55;4.73;;;3.00;;
4766;SDS011;2397;53.576;9.746;2024-02-26T00:54:22;2.93;;;2.73;;
4766;SDS011;2397;53.576;9.746;2024-02-26T00:56:49;3.70;;;3.13;;
4766;SDS011;2397;53.576;9.746;2024-02-26T00:59:16;3.27;;;3.07;;
4766;SDS011;2397;53.576;9.746;2024-02-26T01:01:42;3.60;;;3.30;;
4766;SDS011;2397;53.576;9.746;2024-02-26T01:04:09;3.37;;;3.07;;
4766;SDS011;2397;53.576;9.746;2024-02-26T01:06:35;3.20;;;2.77;;
4766;SDS011;2397;53.576;9.746;2024-02-26T01:09:02;2.80;;;2.60;;
4766;SDS011;2397;53.576;9.746;2024-02-26T01:11:29;3.33;;;3.03;;
4766;SDS011;2397;53.576;9.746;2024-02-26T01:13:56;3.00;;;2.80;;
4766;SDS011;2397;53.576;9.746;2024-02-26T01:16:23;4.97;;;3.40;;
4766;SDS011;2397;53.576;9.746;2024-02-26T01:18:50;3.20;;;2.93;;
4766;SDS011;2397;53.576;9.746;2024-02-26T01:21:17;4.20;;;2.57;;
4766;SDS011;2397;53.576;9.746;2024-02-26T01:23:43;3.33;;;2.83;;
4766;SDS011;2397;53.576;9.746;2024-02-26T01:26:10;3.30;;;3.00;;
4766;SDS011;2397;53.576;9.746;2024-02-26T01:28:37;3.10;;;2.90;;
4766;SDS011;2397;53.576;9.746;2024-02-26T01:31:05;3.33;;;3.13;;
4766;SDS011;2397;53.576;9.746;2024-02-26T01:33:34;2.70;;;2.50;;
4766;SDS011;2397;53.576;9.746;2024-02-26T01:36:00;3.07;;;2.73;;
4766;SDS011;2397;53.576;9.746;2024-02-26T01:38:27;3.43;;;3.07;;
4766;SDS011;2397;53.576;9.746;2024-02-26T01:40:54;3.33;;;3.03;;
4766;SDS011;2397;53.576;9.746;2024-02-26T01:43:20;2.80;;;2.60;;
4766;SDS011;2397;53.576;9.746;2024-02-26T01:45:47;3.00;;;2.80;;
4766;SDS011;2397;53.576;9.746;2024-02-26T01:48:14;4.90;;;2.63;;
4766;SDS011;2397;53.576;9.746;2024-02-26T01:50:42;2.60;;;2.40;;
4766;SDS011;2397;53.576;9.746;2024-02-26T01:53:08;3.30;;;3.00;;
4766;SDS011;2397;53.576;9.746;2024-02-26T01:55:36;3.33;;;3.03;;
4766;SDS011;2397;53.576;9.746;2024-02-26T01:58:06;4.43;;;3.40;;
4766;SDS011;2397;53.576;9.746;2024-02-26T02:00:33;3.77;;;2.90;;
4766;SDS011;2397;53.576;9.746;2024-02-26T02:03:01;3.40;;;2.63;;
4766;SDS011;2397;53.576;9.746;2024-02-26T02:05:29;3.67;;;3.20;;
4766;SDS011;2397;53.576;9.746;2024-02-26T02:07:57;3.87;;;2.70;;
4766;SDS011;2397;53.576;9.746;2024-02-26T02:10:24;4.43;;;2.90;;
4766;SDS011;2397;53.576;9.746;2024-02-26T02:12:52;3.63;;;3.30;;
4766;SDS011;2397;53.576;9.746;2024-02-26T02:15:19;2.90;;;2.70;;
4766;SDS011;2397;53.576;9.746;2024-02-26T02:17:47;3.37;;;3.07;;
4766;SDS011;2397;53.576;9.746;2024-02-26T02:20:17;5.17;;;3.73;;
4766;SDS011;2397;53.576;9.746;2024-02-26T02:22:45;4.00;;;3.60;;
4766;SDS011;2397;53.576;9.746;2024-02-26T02:25:12;6.83;;;3.97;;
4766;SDS011;2397;53.576;9.746;2024-02-26T02:27:39;6.80;;;4.40;;
4766;SDS011;2397;53.576;9.746;2024-02-26T02:30:06;5.93;;;4.03;;
4766;SDS011;2397;53.576;9.746;2024-02-26T02:32:35;7.30;;;4.77;;
4766;SDS011;2397;53.576;9.746;2024-02-26T02:35:04;12.90;;;5.17;;
4766;SDS011;2397;53.576;9.746;2024-02-26T02:37:31;9.30;;;5.40;;
4766;SDS011;2397;53.576;9.746;2024-02-26T02:39:59;10.40;;;5.90;;
4766;SDS011;2397;53.576;9.746;2024-02-26T02:42:26;12.90;;;6.57;;
4766;SDS011;2397;53.576;9.746;2024-02-26T02:44:53;18.80;;;7.47;;
4766;SDS011;2397;53.576;9.746;2024-02-26T02:47:19;19.40;;;7.93;;
4766;SDS011;2397;53.576;9.746;2024-02-26T02:49:46;11.07;;;8.10;;
4766;SDS011;2397;53.576;9.746;2024-02-26T02:52:12;11.33;;;6.83;;
4766;SDS011;2397;53.576;9.746;2024-02-26T02:54:39;12.67;;;7.40;;
4766;SDS011;2397;53.576;9.746;2024-02-26T02:57:08;15.87;;;8.30;;
4766;SDS011;2397;53.576;9.746;2024-02-26T02:59:36;16.67;;;7.90;;
4766;SDS011;2397;53.576;9.746;2024-02-26T03:02:02;13.03;;;7.00;;
4766;SDS011;2397;53.576;9.746;2024-02-26T03:04:29;13.33;;;8.20;;
4766;SDS011;2397;53.576;9.746;2024-02-26T03:06:56;13.60;;;7.83;;
4766;SDS011;2397;53.576;9.746;2024-02-26T03:09:24;13.13;;;8.37;;
4766;SDS011;2397;53.576;9.746;2024-02-26T03:11:50;12.57;;;8.20;;
4766;SDS011;2397;53.576;9.746;2024-02-26T03:14:18;16.20;;;8.47;;
4766;SDS011;2397;53.576;9.746;2024-02-26T03:16:45;11.20;;;7.70;;
4766;SDS011;2397;53.576;9.746;2024-02-26T03:19:14;15.80;;;7.80;;
4766;SDS011;2397;53.576;9.746;2024-02-26T03:21:41;11.40;;;8.10;;
4766;SDS011;2397;53.576;9.746;2024-02-26T03:24:08;14.10;;;8.50;;
4766;SDS011;2397;53.576;9.746;2024-02-26T03:26:38;11.90;;;7.70;;
4766;SDS011;2397;53.576;9.746;2024-02-26T03:29:05;17.90;;;9.30;;
4766;SDS011;2397;53.576;9.746;2024-02-26T03:31:31;18.23;;;9.90;;
4766;SDS011;2397;53.576;9.746;2024-02-26T03:33:58;15.80;;;8.80;;
4766;SDS011;2397;53.576;9.746;2024-02-26T03:36:25;19.17;;;11.60;;
4766;SDS011;2397;53.576;9.746;2024-02-26T03:38:53;15.77;;;9.73;;
4766;SDS011;2397;53.576;9.746;2024-02-26T03:41:20;16.50;;;10.00;;
4766;SDS011;2397;53.576;9.746;2024-02-26T03:43:47;18.33;;;10.70;;
4766;SDS011;2397;53.576;9.746;2024-02-26T03:46:14;16.97;;;10.20;;
4766;SDS011;2397;53.576;9.746;2024-02-26T03:48:41;20.20;;;10.97;;
4766;SDS011;2397;53.576;9.746;2024-02-26T03:51:08;20.10;;;10.80;;
4766;SDS011;2397;53.576;9.746;2024-02-26T03:53:36;16.33;;;9.47;;
4766;SDS011;2397;53.576;9.746;2024-02-26T03:56:04;18.77;;;10.10;;
4766;SDS011;2397;53.576;9.746;2024-02-26T03:58:31;17.13;;;10.50;;
4766;SDS011;2397;53.576;9.746;2024-02-26T04:01:01;18.73;;;10.30;;
4766;SDS011;2397;53.576;9.746;2024-02-26T04:03:27;18.00;;;10.40;;
4766;SDS011;2397;53.576;9.746;2024-02-26T04:05:54;23.20;;;12.00;;
4766;SDS011;2397;53.576;9.746;2024-02-26T04:08:21;19.50;;;10.80;;
4766;SDS011;2397;53.576;9.746;2024-02-26T04:10:47;19.53;;;10.90;;
4766;SDS011;2397;53.576;9.746;2024-02-26T04:13:16;23.17;;;11.87;;
4766;SDS011;2397;53.576;9.746;2024-02-26T04:15:44;19.30;;;11.37;;
4766;SDS011;2397;53.576;9.746;2024-02-26T04:18:10;18.33;;;11.40;;
4766;SDS011;2397;53.576;9.746;2024-02-26T04:20:37;24.63;;;11.37;;
4766;SDS011;2397;53.576;9.746;2024-02-26T04:23:03;31.33;;;12.07;;
4766;SDS011;2397;53.576;9.746;2024-02-26T04:25:30;24.50;;;11.97;;
4766;SDS011;2397;53.576;9.746;2024-02-26T04:27:58;27.17;;;13.37;;
4766;SDS011;2397;53.576;9.746;2024-02-26T04:30:24;23.30;;;11.70;;
4766;SDS011;2397;53.576;9.746;2024-02-26T04:32:51;24.77;;;11.33;;
4766;SDS011;2397;53.576;9.746;2024-02-26T04:35:18;26.30;;;12.27;;
4766;SDS011;2397;53.576;9.746;2024-02-26T04:37:45;26.73;;;13.00;;
4766;SDS011;2397;53.576;9.746;2024-02-26T04:40:11;25.60;;;13.20;;
4766;SDS011;2397;53.576;9.746;2024-02-26T04:42:38;21.60;;;11.93;;
4766;SDS011;2397;53.576;9.746;2024-02-26T04:45:05;30.70;;;12.70;;
4766;SDS011;2397;53.576;9.746;2024-02-26T04:47:33;21.53;;;11.70;;
4766;SDS011;2397;53.576;9.746;2024-02-26T04:49:59;38.50;;;12.73;;
4766;SDS011;2397;53.576;9.746;2024-02-26T04:52:26;23.67;;;11.80;;
4766;SDS011;2397;53.576;9.746;2024-02-26T04:54:53;22.17;;;12.80;;
4766;SDS011;2397;53.576;9.746;2024-02-26T04:57:19;24.23;;;13.00;;
4766;SDS011;2397;53.576;9.746;2024-02-26T04:59:47;24.07;;;12.60;;
4766;SDS011;2397;53.576;9.746;2024-02-26T05:02:13;20.13;;;12.23;;
4766;SDS011;2397;53.576;9.746;2024-02-26T05:04:40;20.50;;;12.13;;
4766;SDS011;2397;53.576;9.746;2024-02-26T05:07:07;20.17;;;11.43;;
4766;SDS011;2397;53.576;9.746;2024-02-26T05:09:34;23.50;;;12.90;;
4766;SDS011;2397;53.576;9.746;2024-02-26T05:12:00;26.17;;;13.23;;
4766;SDS011;2397;53.576;9.746;2024-02-26T05:14:27;20.93;;;11.47;;
4766;SDS011;2397;53.576;9.746;2024-02-26T05:16:54;24.23;;;12.40;;
4766;SDS011;2397;53.576;9.746;2024-02-26T05:19:21;19.07;;;10.47;;
4766;SDS011;2397;53.576;9.746;2024-02-26T05:21:47;21.00;;;11.40;;
4766;SDS011;2397;53.576;9.746;2024-02-26T05:24:16;19.63;;;10.50;;
4766;SDS011;2397;53.576;9.746;2024-02-26T05:26:44;19.00;;;11.67;;
4766;SDS011;2397;53.576;9.746;2024-02-26T05:29:11;18.97;;;11.07;;
4766;SDS011;2397;53.576;9.746;2024-02-26T05:31:38;24.60;;;11.67;;
4766;SDS011;2397;53.576;9.746;2024-02-26T05:34:04;22.73;;;11.83;;
4766;SDS011;2397;53.576;9.746;2024-02-26T05:36:31;18.53;;;10.80;;
4766;SDS011;2397;53.576;9.746;2024-02-26T05:39:00;18.90;;;10.70;;
4766;SDS011;2397;53.576;9.746;2024-02-26T05:41:27;19.77;;;11.50;;
4766;SDS011;2397;53.576;9.746;2024-02-26T05:43:54;19.87;;;12.10;;
4766;SDS011;2397;53.576;9.746;2024-02-26T05:46:20;21.90;;;12.40;;
4766;SDS011;2397;53.576;9.746;2024-02-26T05:48:49;25.10;;;13.20;;
4766;SDS011;2397;53.576;9.746;2024-02-26T05:51:18;24.30;;;12.00;;
4766;SDS011;2397;53.576;9.746;2024-02-26T05:53:46;23.30;;;12.70;;
4766;SDS011;2397;53.576;9.746;2024-02-26T05:56:14;28.20;;;14.20;;
4766;SDS011;2397;53.576;9.746;2024-02-26T05:58:40;25.00;;;13.27;;
4766;SDS011;2397;53.576;9.746;2024-02-26T06:01:07;23.57;;;13.53;;
4766;SDS011;2397;53.576;9.746;2024-02-26T06:03:33;27.53;;;13.33;;
4766;SDS011;2397;53.576;9.746;2024-02-26T06:06:00;29.50;;;13.70;;
4766;SDS011;2397;53.576;9.746;2024-02-26T06:08:27;27.10;;;12.70;;
4766;SDS011;2397;53.576;9.746;2024-02-26T06:10:53;22.23;;;13.40;;
4766;SDS011;2397;53.576;9.746;2024-02-26T06:13:20;23.87;;;14.57;;
4766;SDS011;2397;53.576;9.746;2024-02-26T06:15:47;21.73;;;13.03;;
4766;SDS011;2397;53.576;9.746;2024-02-26T06:18:13;24.00;;;13.30;;
4766;SDS011;2397;53.576;9.746;2024-02-26T06:20:40;24.67;;;14.23;;
4766;SDS011;2397;53.576;9.746;2024-02-26T06:23:06;22.77;;;12.57;;
4766;SDS011;2397;53.576;9.746;2024-02-26T06:25:34;29.27;;;13.70;;
4766;SDS011;2397;53.576;9.746;2024-02-26T06:28:01;22.63;;;12.20;;
4766;SDS011;2397;53.576;9.746;2024-02-26T06:30:28;20.63;;;11.83;;
4766;SDS011;2397;53.576;9.746;2024-02-26T06:32:54;27.57;;;12.47;;
4766;SDS011;2397;53.576;9.746;2024-02-26T06:35:21;23.47;;;13.20;;
4766;SDS011;2397;53.576;9.746;2024-02-26T06:37:48;19.33;;;12.10;;
4766;SDS011;2397;53.576;9.746;2024-02-26T06:40:16;28.03;;;13.67;;
4766;SDS011;2397;53.576;9.746;2024-02-26T06:42:43;25.13;;;12.80;;
4766;SDS011;2397;53.576;9.746;2024-02-26T06:45:14;30.93;;;12.17;;
4766;SDS011;2397;53.576;9.746;2024-02-26T06:47:40;28.40;;;13.13;;
4766;SDS011;2397;53.576;9.746;2024-02-26T06:50:07;23.40;;;12.53;;
4766;SDS011;2397;53.576;9.746;2024-02-26T06:52:34;25.27;;;12.40;;
4766;SDS011;2397;53.576;9.746;2024-02-26T06:55:01;29.10;;;13.00;;
4766;SDS011;2397;53.576;9.746;2024-02-26T06:57:28;23.07;;;11.90;;
4766;SDS011;2397;53.576;9.746;2024-02-26T06:59:56;25.63;;;11.90;;
4766;SDS011;2397;53.576;9.746;2024-02-26T07:02:25;18.90;;;11.70;;
4766;SDS011;2397;53.576;9.746;2024-02-26T07:04:52;31.03;;;12.00;;
4766;SDS011;2397;53.576;9.746;2024-02-26T07:07:18;26.40;;;12.60;;
4766;SDS011;2397;53.576;9.746;2024-02-26T07:09:45;27.73;;;13.90;;
4766;SDS011;2397;53.576;9.746;2024-02-26T07:12:12;27.60;;;12.63;;
4766;SDS011;2397;53.576;9.746;2024-02-26T07:14:38;27.50;;;12.13;;
4766;SDS011;2397;53.576;9.746;2024-02-26T07:17:05;26.67;;;13.27;;
4766;SDS011;2397;53.576;9.746;2024-02-26T07:19:32;24.27;;;12.13;;
4766;SDS011;2397;53.576;9.746;2024-02-26T07:21:58;24.10;;;11.60;;
4766;SDS011;2397;53.576;9.746;2024-02-26T07:24:27;22.57;;;12.43;;
4766;SDS011;2397;53.576;9.746;2024-02-26T07:26:54;23.40;;;11.90;;
4766;SDS011;2397;53.576;9.746;2024-02-26T07:29:22;24.30;;;13.43;;
4766;SDS011;2397;53.576;9.746;2024-02-26T07:31:49;24.30;;;12.13;;
4766;SDS011;2397;53.576;9.746;2024-02-26T07:34:16;20.50;;;12.47;;
4766;SDS011;2397;53.576;9.746;2024-02-26T07:36:43;26.03;;;12.07;;
4766;SDS011;2397;53.576;9.746;2024-02-26T07:39:10;22.43;;;11.30;;
4766;SDS011;2397;53.576;9.746;2024-02-26T07:41:37;25.87;;;12.90;;
4766;SDS011;2397;53.576;9.746;2024-02-26T07:44:05;19.00;;;10.47;;
4766;SDS011;2397;53.576;9.746;2024-02-26T07:46:31;21.10;;;12.37;;
4766;SDS011;2397;53.576;9.746;2024-02-26T07:48:59;18.60;;;10.90;;
4766;SDS011;2397;53.576;9.746;2024-02-26T07:51:25;17.53;;;10.70;;
4766;SDS011;2397;53.576;9.746;2024-02-26T07:53:52;38.70;;;11.90;;
4766;SDS011;2397;53.576;9.746;2024-02-26T07:56:19;22.57;;;11.80;;
4766;SDS011;2397;53.576;9.746;2024-02-26T07:58:45;22.53;;;10.83;;
4766;SDS011;2397;53.576;9.746;2024-02-26T08:01:13;25.80;;;10.73;;
4766;SDS011;2397;53.576;9.746;2024-02-26T08:03:41;23.63;;;10.00;;
4766;SDS011;2397;53.576;9.746;2024-02-26T08:06:08;27.87;;;10.60;;
4766;SDS011;2397;53.576;9.746;2024-02-26T08:08:34;21.23;;;10.57;;
4766;SDS011;2397;53.576;9.746;2024-02-26T08:11:01;23.90;;;10.60;;
4766;SDS011;2397;53.576;9.746;2024-02-26T08:13:28;23.70;;;10.30;;
4766;SDS011;2397;53.576;9.746;2024-02-26T08:15:54;40.03;;;11.40;;
4766;SDS011;2397;53.576;9.746;2024-02-26T08:18:21;31.57;;;11.63;;
4766;SDS011;2397;53.576;9.746;2024-02-26T08:20:48;24.97;;;11.27;;
4766;SDS011;2397;53.576;9.746;2024-02-26T08:23:17;22.50;;;11.17;;
4766;SDS011;2397;53.576;9.746;2024-02-26T08:25:44;21.70;;;10.70;;
4766;SDS011;2397;53.576;9.746;2024-02-26T08:28:10;20.33;;;10.40;;
4766;SDS011;2397;53.576;9.746;2024-02-26T08:30:40;23.50;;;11.80;;
4766;SDS011;2397;53.576;9.746;2024-02-26T08:33:06;28.37;;;12.13;;
4766;SDS011;2397;53.576;9.746;2024-02-26T08:35:33;22.50;;;11.33;;
4766;SDS011;2397;53.576;9.746;2024-02-26T08:38:00;28.60;;;12.40;;
4766;SDS011;2397;53.576;9.746;2024-02-26T08:40:26;26.50;;;12.10;;
4766;SDS011;2397;53.576;9.746;2024-02-26T08:42:53;19.53;;;10.73;;
4766;SDS011;2397;53.576;9.746;2024-02-26T08:45:19;20.03;;;10.70;;
4766;SDS011;2397;53.576;9.746;2024-02-26T08:47:47;23.97;;;11.37;;
4766;SDS011;2397;53.576;9.746;2024-02-26T08:50:13;23.33;;;11.67;;
4766;SDS011;2397;53.576;9.746;2024-02-26T08:52:40;22.47;;;11.90;;
4766;SDS011;2397;53.576;9.746;2024-02-26T08:55:07;17.13;;;10.87;;
4766;SDS011;2397;53.576;9.746;2024-02-26T08:57:36;22.13;;;11.47;;
4766;SDS011;2397;53.576;9.746;2024-02-26T09:00:02;24.23;;;10.60;;
4766;SDS011;2397;53.576;9.746;2024-02-26T09:02:30;20.47;;;11.20;;
4766;SDS011;2397;53.576;9.746;2024-02-26T09:04:56;26.33;;;12.37;;
4766;SDS011;2397;53.576;9.746;2024-02-26T09:07:23;23.50;;;11.47;;
4766;SDS011;2397;53.576;9.746;2024-02-26T09:09:49;27.33;;;11.80;;
4766;SDS011;2397;53.576;9.746;2024-02-26T09:12:17;28.20;;;12.53;;
4766;SDS011;2397;53.576;9.746;2024-02-26T09:14:43;20.83;;;12.27;;
4766;SDS011;2397;53.576;9.746;2024-02-26T09:17:10;24.60;;;13.27;;
4766;SDS011;2397;53.576;9.746;2024-02-26T09:19:37;23.37;;;11.67;;
4766;SDS011;2397;53.576;9.746;2024-02-26T09:22:04;25.17;;;12.97;;
4766;SDS011;2397;53.576;9.746;2024-02-26T09:24:30;27.50;;;13.23;;
4766;SDS011;2397;53.576;9.746;2024-02-26T09:26:57;26.20;;;13.37;;
4766;SDS011;2397;53.576;9.746;2024-02-26T09:29:24;27.03;;;14.30;;
4766;SDS011;2397;53.576;9.746;2024-02-26T09:31:52;22.77;;;13.17;;
4766;SDS011;2397;53.576;9.746;2024-02-26T09:34:19;24.53;;;13.10;;
4766;SDS011;2397;53.576;9.746;2024-02-26T09:36:45;23.50;;;11.93;;
4766;SDS011;2397;53.576;9.746;2024-02-26T09:39:12;23.50;;;13.23;;
4766;SDS011;2397;53.576;9.746;2024-02-26T09:41:44;27.47;;;13.33;;
4766;SDS011;2397;53.576;9.746;2024-02-26T09:44:11;29.50;;;14.70;;
4766;SDS011;2397;53.576;9.746;2024-02-26T09:46:41;23.80;;;13.40;;
4766;SDS011;2397;53.576;9.746;2024-02-26T09:49:08;25.37;;;13.33;;
4766;SDS011;2397;53.576;9.746;2024-02-26T09:51:37;24.20;;;12.37;;
4766;SDS011;2397;53.576;9.746;2024-02-26T09:54:05;25.53;;;12.63;;
4766;SDS011;2397;53.576;9.746;2024-02-26T09:56:36;29.80;;;14.20;;
4766;SDS011;2397;53.576;9.746;2024-02-26T09:59:25;30.37;;;14.67;;
4766;SDS011;2397;53.576;9.746;2024-02-26T10:01:53;30.40;;;13.70;;
4766;SDS011;2397;53.576;9.746;2024-02-26T10:04:20;23.00;;;11.83;;
4766;SDS011;2397;53.576;9.746;2024-02-26T10:06:47;25.23;;;13.90;;
4766;SDS011;2397;53.576;9.746;2024-02-26T10:09:16;23.70;;;13.83;;
4766;SDS011;2397;53.576;9.746;2024-02-26T10:11:42;21.60;;;12.67;;
4766;SDS011;2397;53.576;9.746;2024-02-26T10:14:10;26.13;;;14.07;;
4766;SDS011;2397;53.576;9.746;2024-02-26T10:16:38;27.00;;;12.83;;
4766;SDS011;2397;53.576;9.746;2024-02-26T10:19:04;31.17;;;13.47;;
4766;SDS011;2397;53.576;9.746;2024-02-26T10:21:31;31.80;;;14.20;;
4766;SDS011;2397;53.576;9.746;2024-02-26T10:23:58;24.97;;;12.77;;
4766;SDS011;2397;53.576;9.746;2024-02-26T10:26:24;28.70;;;14.30;;
4766;SDS011;2397;53.576;9.746;2024-02-26T10:28:51;28.40;;;13.70;;
4766;SDS011;2397;53.576;9.746;2024-02-26T10:31:21;21.90;;;12.80;;
4766;SDS011;2397;53.576;9.746;2024-02-26T10:33:48;24.80;;;14.10;;
4766;SDS011;2397;53.576;9.746;2024-02-26T10:36:15;32.53;;;14.50;;
4766;SDS011;2397;53.576;9.746;2024-02-26T10:38:42;22.83;;;13.50;;
4766;SDS011;2397;53.576;9.746;2024-02-26T10:41:12;19.73;;;12.67;;
4766;SDS011;2397;53.576;9.746;2024-02-26T10:43:41;23.30;;;12.70;;
4766;SDS011;2397;53.576;9.746;2024-02-26T10:46:08;23.93;;;13.50;;
4766;SDS011;2397;53.576;9.746;2024-02-26T10:48:36;23.10;;;13.00;;
4766;SDS011;2397;53.576;9.746;2024-02-26T10:51:03;22.67;;;12.10;;
4766;SDS011;2397;53.576;9.746;2024-02-26T10:53:31;23.90;;;12.47;;
4766;SDS011;2397;53.576;9.746;2024-02-26T10:56:03;19.97;;;11.90;;
4766;SDS011;2397;53.576;9.746;2024-02-26T10:58:31;23.20;;;12.67;;
4766;SDS011;2397;53.576;9.746;2024-02-26T11:00:58;22.80;;;12.33;;
4766;SDS011;2397;53.576;9.746;2024-02-26T11:03:26;17.83;;;11.87;;
4766;SDS011;2397;53.576;9.746;2024-02-26T11:05:54;20.90;;;11.83;;
4766;SDS011;2397;53.576;9.746;2024-02-26T11:08:23;16.67;;;10.73;;
4766;SDS011;2397;53.576;9.746;2024-02-26T11:10:53;18.67;;;12.10;;
4766;SDS011;2397;53.576;9.746;2024-02-26T11:13:21;16.93;;;11.00;;
4766;SDS011;2397;53.576;9.746;2024-02-26T11:15:49;20.43;;;12.10;;
4766;SDS011;2397;53.576;9.746;2024-02-26T11:18:18;20.10;;;12.10;;
4766;SDS011;2397;53.576;9.746;2024-02-26T11:20:46;17.53;;;10.90;;
4766;SDS011;2397;53.576;9.746;2024-02-26T11:23:14;17.10;;;10.10;;
4766;SDS011;2397;53.576;9.746;2024-02-26T11:25:41;16.40;;;11.10;;
4766;SDS011;2397;53.576;9.746;2024-02-26T11:28:09;17.10;;;10.43;;
4766;SDS011;2397;53.576;9.746;2024-02-26T11:30:41;16.20;;;11.17;;
4766;SDS011;2397;53.576;9.746;2024-02-26T11:33:12;22.83;;;10.30;;
4766;SDS011;2397;53.576;9.746;2024-02-26T11:35:40;13.40;;;9.43;;
4766;SDS011;2397;53.576;9.746;2024-02-26T11:38:07;14.40;;;8.70;;
4766;SDS011;2397;53.576;9.746;2024-02-26T11:40:38;12.77;;;8.33;;
4766;SDS011;2397;53.576;9.746;2024-02-26T11:43:07;10.67;;;8.50;;
4766;SDS011;2397;53.576;9.746;2024-02-26T12:00:31;12.73;;;8.60;;
4766;SDS011;2397;53.576;9.746;2024-02-26T12:02:59;11.50;;;8.57;;
4766;SDS011;2397;53.576;9.746;2024-02-26T12:05:32;10.57;;;8.60;;
4766;SDS011;2397;53.576;9.746;2024-02-26T12:08:00;11.50;;;8.13;;
4766;SDS011;2397;53.576;9.746;2024-02-26T12:10:36;11.30;;;8.73;;
4766;SDS011;2397;53.576;9.746;2024-02-26T12:13:12;14.63;;;9.30;;
4766;SDS011;2397;53.576;9.746;2024-02-26T12:15:46;11.33;;;8.17;;
4766;SDS011;2397;53.576;9.746;2024-02-26T12:18:22;13.80;;;10.00;;
4766;SDS011;2397;53.576;9.746;2024-02-26T12:21:01;12.87;;;9.30;;
4766;SDS011;2397;53.576;9.746;2024-02-26T12:23:30;12.20;;;9.60;;
4766;SDS011;2397;53.576;9.746;2024-02-26T12:26:00;12.00;;;9.70;;
4766;SDS011;2397;53.576;9.746;2024-02-26T12:28:30;13.50;;;9.23;;
4766;SDS011;2397;53.576;9.746;2024-02-26T12:30:56;14.73;;;11.27;;
4766;SDS011;2397;53.576;9.746;2024-02-26T12:33:26;12.93;;;9.10;;
4766;SDS011;2397;53.576;9.746;2024-02-26T12:35:53;14.30;;;10.63;;
4766;SDS011;2397;53.576;9.746;2024-02-26T12:38:21;12.77;;;10.27;;
4766;SDS011;2397;53.576;9.746;2024-02-26T12:40:47;12.13;;;9.40;;
4766;SDS011;2397;53.576;9.746;2024-02-26T12:43:15;13.30;;;9.00;;
4766;SDS011;2397;53.576;9.746;2024-02-26T12:45:42;12.67;;;9.40;;
4766;SDS011;2397;53.576;9.746;2024-02-26T12:48:14;12.40;;;9.50;;
4766;SDS011;2397;53.576;9.746;2024-02-26T12:50:44;13.67;;;8.57;;
4766;SDS011;2397;53.576;9.746;2024-02-26T12:53:11;14.00;;;10.23;;
4766;SDS011;2397;53.576;9.746;2024-02-26T12:55:38;13.50;;;9.63;;
4766;SDS011;2397;53.576;9.746;2024-02-26T12:58:06;11.83;;;9.27;;
4766;SDS011;2397;53.576;9.746;2024-02-26T13:00:33;12.63;;;9.80;;
4766;SDS011;2397;53.576;9.746;2024-02-26T13:03:00;12.10;;;9.00;;
4766;SDS011;2397;53.576;9.746;2024-02-26T13:05:27;10.87;;;8.20;;
4766;SDS011;2397;53.576;9.746;2024-02-26T13:07:54;11.50;;;8.73;;
4766;SDS011;2397;53.576;9.746;2024-02-26T13:10:21;15.20;;;9.80;;
4766;SDS011;2397;53.576;9.746;2024-02-26T13:12:48;11.13;;;8.73;;
4766;SDS011;2397;53.576;9.746;2024-02-26T13:15:20;10.40;;;8.87;;
4766;SDS011;2397;53.576;9.746;2024-02-26T13:17:48;11.63;;;8.60;;
4766;SDS011;2397;53.576;9.746;2024-02-26T13:20:29;11.33;;;8.20;;
4766;SDS011;2397;53.576;9.746;2024-02-26T13:23:03;10.30;;;8.07;;
4766;SDS011;2397;53.576;9.746;2024-02-26T13:25:31;14.80;;;8.73;;
4766;SDS011;2397;53.576;9.746;2024-02-26T13:28:15;9.00;;;7.70;;
4766;SDS011;2397;53.576;9.746;2024-02-26T13:30:52;11.10;;;7.97;;
4766;SDS011;2397;53.576;9.746;2024-02-26T13:33:27;9.83;;;7.23;;
4766;SDS011;2397;53.576;9.746;2024-02-26T13:35:56;11.90;;;8.93;;
4766;SDS011;2397;53.576;9.746;2024-02-26T13:38:23;13.43;;;8.30;;
4766;SDS011;2397;53.576;9.746;2024-02-26T13:40:51;11.43;;;8.73;;
4766;SDS011;2397;53.576;9.746;2024-02-26T13:43:18;11.17;;;8.00;;
4766;SDS011;2397;53.576;9.746;2024-02-26T13:45:46;11.53;;;8.27;;
4766;SDS011;2397;53.576;9.746;2024-02-26T13:48:13;10.53;;;7.97;;
4766;SDS011;2397;53.576;9.746;2024-02-26T13:50:41;12.80;;;9.40;;
4766;SDS011;2397;53.576;9.746;2024-02-26T13:53:12;11.23;;;8.60;;
4766;SDS011;2397;53.576;9.746;2024-02-26T13:55:40;10.40;;;7.53;;
4766;SDS011;2397;53.576;9.746;2024-02-26T13:58:11;11.20;;;7.80;;
4766;SDS011;2397;53.576;9.746;2024-02-26T14:00:39;11.60;;;8.10;;
4766;SDS011;2397;53.576;9.746;2024-02-26T14:03:08;12.50;;;8.80;;
4766;SDS011;2397;53.576;9.746;2024-02-26T14:05:35;12.83;;;8.23;;
4766;SDS011;2397;53.576;9.746;2024-02-26T14:08:02;12.00;;;8.50;;
4766;SDS011;2397;53.576;9.746;2024-02-26T14:10:29;13.27;;;9.33;;
4766;SDS011;2397;53.576;9.746;2024-02-26T14:12:57;13.40;;;9.57;;
4766;SDS011;2397;53.576;9.746;2024-02-26T14:15:24;13.20;;;9.33;;
4766;SDS011;2397;53.576;9.746;2024-02-26T14:17:52;13.47;;;8.57;;
4766;SDS011;2397;53.576;9.746;2024-02-26T14:20:23;13.10;;;9.10;;
4766;SDS011;2397;53.576;9.746;2024-02-26T14:22:50;11.43;;;8.67;;
4766;SDS011;2397;53.576;9.746;2024-02-26T14:25:20;12.00;;;9.13;;
4766;SDS011;2397;53.576;9.746;2024-02-26T14:27:47;10.00;;;7.80;;
4766;SDS011;2397;53.576;9.746;2024-02-26T14:30:14;12.87;;;9.03;;
4766;SDS011;2397;53.576;9.746;2024-02-26T14:32:41;10.63;;;8.90;;
4766;SDS011;2397;53.576;9.746;2024-02-26T14:35:08;11.53;;;8.70;;
4766;SDS011;2397;53.576;9.746;2024-02-26T14:37:41;11.73;;;8.30;;
4766;SDS011;2397;53.576;9.746;2024-02-26T14:40:10;13.93;;;8.77;;
4766;SDS011;2397;53.576;9.746;2024-02-26T14:42:37;12.30;;;9.03;;
4766;SDS011;2397;53.576;9.746;2024-02-26T14:45:04;11.30;;;8.03;;
4766;SDS011;2397;53.576;9.746;2024-02-26T14:47:33;9.67;;;8.20;;
4766;SDS011;2397;53.576;9.746;2024-02-26T14:50:00;10.80;;;8.27;;
4766;SDS011;2397;53.576;9.746;2024-02-26T14:52:27;12.40;;;8.57;;
4766;SDS011;2397;53.576;9.746;2024-02-26T14:54:53;13.00;;;8.37;;
4766;SDS011;2397;53.576;9.746;2024-02-26T14:57:20;13.67;;;9.17;;
4766;SDS011;2397;53.576;9.746;2024-02-26T14:59:47;10.67;;;8.83;;
4766;SDS011;2397;53.576;9.746;2024-02-26T15:02:14;10.93;;;8.90;;
4766;SDS011;2397;53.576;9.746;2024-02-26T15:04:40;13.00;;;8.33;;
4766;SDS011;2397;53.576;9.746;2024-02-26T15:07:07;14.10;;;9.37;;
4766;SDS011;2397;53.576;9.746;2024-02-26T15:09:36;13.13;;;9.40;;
4766;SDS011;2397;53.576;9.746;2024-02-26T15:12:05;12.20;;;8.80;;